Time;durP1;ratioP1;P1;durP2;ratioP2;P2;SDS_P1;SDS_P2;PMS_P1;PMS_P2;Temp;Humidity;BMP_temperature;BMP_pressure;BME280_temperature;BME280_humidity;BME280_pressure;Samples;Min_cycle;Max_cycle;Signal;HPM_P1;HPM_P2
2022/10/15 00:02:12;;;;;;;6.27;3.80;;;14.30;99.90;;;;;;4994501;28;20661;-93
2022/10/15 00:04:37;;;;;;;6.10;3.40;;;14.30;99.90;;;;;;4998188;28;20784;-93
2022/10/15 00:07:03;;;;;;;5.73;2.77;;;14.30;99.90;;;;;;4998232;28;20180;-86
2022/10/15 00:09:28;;;;;;;6.07;3.53;;;14.30;99.90;;;;;;4999842;28;20172;-93
2022/10/15 00:11:54;;;;;;;7.17;3.50;;;14.30;99.90;;;;;;5000164;28;20178;-92
2022/10/15 00:14:20;;;;;;;6.27;3.50;;;14.30;99.90;;;;;;4998865;28;20529;-87
2022/10/15 00:16:48;;;;;;;7.80;4.27;;;14.30;99.90;;;;;;5000518;28;20177;-92
2022/10/15 00:19:14;;;;;;;9.43;3.87;;;14.30;99.90;;;;;;5003579;28;20184;-91
2022/10/15 00:21:39;;;;;;;6.53;4.30;;;14.30;99.90;;;;;;5005385;28;20410;-93
2022/10/15 00:24:06;;;;;;;6.13;3.20;;;14.30;99.90;;;;;;5006245;28;20181;-93
2022/10/15 00:26:31;;;;;;;5.73;4.13;;;14.20;99.90;;;;;;5011257;28;20186;-95
2022/10/15 00:28:59;;;;;;;5.70;4.07;;;14.20;99.90;;;;;;5003046;28;20416;-91
2022/10/15 00:31:28;;;;;;;5.40;3.40;;;14.20;99.90;;;;;;5010350;28;20200;-94
2022/10/15 00:33:57;;;;;;;6.17;4.37;;;14.20;99.90;;;;;;5013070;28;20412;-93
2022/10/15 00:36:25;;;;;;;4.50;3.27;;;14.20;99.90;;;;;;5029746;23;20584;-89
2022/10/15 00:38:51;;;;;;;5.97;4.77;;;14.20;99.90;;;;;;5034498;28;20442;-85
2022/10/15 00:41:24;;;;;;;6.30;4.03;;;14.20;99.90;;;;;;5034760;28;20417;-93
2022/10/15 00:43:52;;;;;;;5.30;3.60;;;14.20;99.90;;;;;;5035571;28;20979;-92
2022/10/15 00:46:38;;;;;;;10.77;4.97;;;14.20;99.90;;;;;;5037766;28;20865;-93
2022/10/15 00:49:26;;;;;;;9.73;5.10;;;14.20;99.90;;;;;;5035948;28;20413;-94
2022/10/15 00:51:56;;;;;;;8.70;4.73;;;14.20;99.90;;;;;;5036663;28;20796;-92
2022/10/15 00:54:24;;;;;;;8.03;5.50;;;14.20;99.90;;;;;;5044634;28;20392;-86
2022/10/15 00:56:50;;;;;;;7.83;5.07;;;14.20;99.90;;;;;;5049869;28;20410;-93
2022/10/15 00:59:21;;;;;;;7.80;4.27;;;14.20;99.90;;;;;;5054849;28;20433;-94
2022/10/15 01:01:53;;;;;;;7.80;6.07;;;14.20;99.90;;;;;;5054387;28;20169;-90
2022/10/15 01:04:30;;;;;;;10.30;5.40;;;14.20;99.90;;;;;;5048975;28;20460;-93
2022/10/15 01:06:55;;;;;;;11.73;6.87;;;14.20;99.90;;;;;;5050511;28;20418;-89
2022/10/15 01:09:21;;;;;;;10.90;6.20;;;14.20;99.90;;;;;;5052058;28;20513;-92
2022/10/15 01:11:52;;;;;;;10.43;7.07;;;14.20;99.90;;;;;;5048976;28;20190;-86
2022/10/15 01:14:43;;;;;;;8.30;5.00;;;14.20;99.90;;;;;;5047366;28;20194;-92
2022/10/15 01:17:32;;;;;;;8.70;6.73;;;14.20;99.90;;;;;;5049189;28;20412;-95
2022/10/15 01:20:12;;;;;;;8.20;6.07;;;14.20;99.90;;;;;;5038190;28;20423;-90
2022/10/15 01:22:41;;;;;;;9.00;6.30;;;14.20;99.90;;;;;;5038117;28;20413;-85
2022/10/15 01:25:47;;;;;;;11.30;6.33;;;14.20;99.90;;;;;;5036962;28;21075;-86
2022/10/15 01:28:47;;;;;;;12.13;7.60;;;14.20;99.90;;;;;;5037235;28;20451;-88
2022/10/15 01:31:21;;;;;;;7.60;6.03;;;14.20;99.90;;;;;;5036639;28;20842;-85
2022/10/15 01:34:01;;;;;;;9.90;5.77;;;14.20;99.90;;;;;;5035503;28;20955;-87
2022/10/15 01:36:45;;;;;;;10.83;6.53;;;14.20;99.90;;;;;;5036771;28;20549;-86
2022/10/15 01:39:19;;;;;;;8.57;6.73;;;14.20;99.90;;;;;;5036712;28;20446;-87
2022/10/15 01:41:54;;;;;;;10.53;6.37;;;14.20;99.90;;;;;;5037602;28;20418;-90
2022/10/15 01:44:53;;;;;;;7.83;5.47;;;14.20;99.90;;;;;;5037844;28;20465;-93
2022/10/15 01:47:25;;;;;;;10.73;6.50;;;14.20;99.90;;;;;;5032843;28;20476;-87
2022/10/15 01:49:53;;;;;;;14.30;8.10;;;14.20;99.90;;;;;;5036724;28;20425;-87
2022/10/15 01:52:24;;;;;;;13.17;8.00;;;14.20;99.90;;;;;;5043672;28;20445;-94
2022/10/15 01:54:52;;;;;;;11.40;8.13;;;14.10;99.90;;;;;;5039319;28;20531;-84
2022/10/15 01:57:19;;;;;;;13.07;9.17;;;14.10;99.90;;;;;;5039591;28;20412;-84
2022/10/15 01:59:45;;;;;;;11.70;8.47;;;14.10;99.90;;;;;;5041184;28;20779;-83
2022/10/15 02:02:10;;;;;;;12.37;7.90;;;14.00;99.90;;;;;;5043723;28;20414;-85
2022/10/15 02:04:40;;;;;;;17.27;10.67;;;14.00;99.90;;;;;;5054219;28;20211;-93
2022/10/15 02:07:27;;;;;;;15.23;9.30;;;13.90;99.90;;;;;;5047745;28;20181;-93
2022/10/15 02:10:22;;;;;;;17.10;10.30;;;13.80;99.90;;;;;;5053659;28;20429;-90
2022/10/15 02:13:14;;;;;;;15.37;9.57;;;13.80;99.90;;;;;;5048631;28;20417;-86
2022/10/15 02:16:10;;;;;;;15.57;10.43;;;13.80;99.90;;;;;;5049908;28;20454;-84
2022/10/15 02:19:10;;;;;;;12.40;7.90;;;13.70;99.90;;;;;;5044256;28;20412;-86
2022/10/15 02:21:59;;;;;;;15.60;10.43;;;13.60;99.90;;;;;;5032392;28;20417;-86
2022/10/15 02:24:32;;;;;;;15.23;11.17;;;13.60;99.90;;;;;;5045443;28;20469;-84
2022/10/15 02:27:01;;;;;;;14.93;9.97;;;13.50;99.90;;;;;;5051287;28;20419;-86
2022/10/15 02:29:31;;;;;;;17.07;9.80;;;13.50;99.90;;;;;;5047477;28;20453;-94
2022/10/15 02:31:58;;;;;;;17.80;10.30;;;13.50;99.90;;;;;;5048969;28;20398;-92
2022/10/15 02:34:28;;;;;;;14.83;10.70;;;13.40;99.90;;;;;;5054785;28;20441;-92
2022/10/15 02:36:59;;;;;;;17.60;10.70;;;13.30;99.90;;;;;;5053731;28;20509;-95
2022/10/15 02:39:25;;;;;;;17.47;10.30;;;13.20;99.90;;;;;;5049727;28;20501;-84
2022/10/15 02:41:52;;;;;;;16.90;11.30;;;13.10;99.90;;;;;;5049021;28;20414;-95
2022/10/15 02:44:18;;;;;;;16.43;10.83;;;13.10;99.90;;;;;;5053639;28;20260;-94
2022/10/15 02:46:43;;;;;;;13.60;9.80;;;12.90;99.90;;;;;;5052636;28;20425;-94
2022/10/15 02:49:09;;;;;;;17.50;10.33;;;12.90;99.90;;;;;;5052367;28;20178;-94
2022/10/15 02:51:35;;;;;;;15.80;10.90;;;12.80;99.90;;;;;;5051614;28;20215;-93
2022/10/15 02:54:02;;;;;;;18.40;11.17;;;12.80;99.90;;;;;;5045839;28;20270;-93
2022/10/15 02:56:28;;;;;;;15.80;10.10;;;12.90;99.90;;;;;;5042534;28;20415;-94
2022/10/15 02:58:53;;;;;;;17.57;10.80;;;13.00;99.90;;;;;;5041495;28;20434;-94
2022/10/15 03:01:19;;;;;;;18.83;11.63;;;13.00;99.90;;;;;;5041380;28;20174;-91
2022/10/15 03:03:44;;;;;;;19.47;11.43;;;13.10;99.90;;;;;;5038396;28;20281;-92
2022/10/15 03:06:10;;;;;;;17.67;12.03;;;13.10;99.90;;;;;;5036399;28;20681;-91
2022/10/15 03:08:36;;;;;;;19.23;11.27;;;13.10;99.90;;;;;;5036409;28;20173;-92
2022/10/15 03:11:01;;;;;;;19.20;11.83;;;13.10;99.90;;;;;;5036158;28;20640;-93
2022/10/15 03:13:28;;;;;;;18.73;11.27;;;13.10;99.90;;;;;;5036490;28;20408;-92
2022/10/15 03:15:54;;;;;;;20.47;11.93;;;13.20;99.90;;;;;;5036050;28;20175;-94
2022/10/15 03:18:19;;;;;;;17.50;11.80;;;13.20;99.90;;;;;;5036452;28;20409;-91
2022/10/15 03:20:53;;;;;;;17.57;11.03;;;13.10;99.90;;;;;;5035981;28;20910;-89
2022/10/15 03:23:18;;;;;;;18.03;10.27;;;13.10;99.90;;;;;;5036462;28;20164;-89
2022/10/15 03:25:44;;;;;;;18.80;10.57;;;12.90;99.90;;;;;;5036716;28;20829;-90
2022/10/15 03:28:09;;;;;;;19.13;12.47;;;12.80;99.90;;;;;;5035949;28;20195;-93
2022/10/15 03:30:35;;;;;;;16.63;10.60;;;12.70;99.90;;;;;;5036313;28;20649;-93
2022/10/15 03:33:01;;;;;;;21.23;11.77;;;12.60;99.90;;;;;;5037293;28;20302;-89
2022/10/15 03:35:26;;;;;;;18.60;9.70;;;12.50;99.90;;;;;;5035638;28;20175;-92
2022/10/15 03:37:52;;;;;;;20.40;10.60;;;12.50;99.90;;;;;;5035468;28;20244;-89
2022/10/15 03:40:17;;;;;;;18.47;11.07;;;12.50;99.90;;;;;;5035497;28;20175;-93
2022/10/15 03:42:43;;;;;;;16.80;10.43;;;12.50;99.90;;;;;;5036726;28;20631;-95
2022/10/15 03:45:09;;;;;;;15.30;9.80;;;12.40;99.90;;;;;;5046278;28;20244;-91
2022/10/15 03:47:34;;;;;;;18.63;11.67;;;12.40;99.90;;;;;;5040584;28;20183;-93
2022/10/15 03:50:00;;;;;;;22.37;11.63;;;12.40;99.90;;;;;;5040151;28;20418;-89
2022/10/15 03:52:25;;;;;;;15.90;9.13;;;12.40;99.90;;;;;;5040770;28;20819;-93
2022/10/15 03:54:51;;;;;;;15.70;10.20;;;12.40;99.90;;;;;;5038834;28;20230;-94
2022/10/15 03:57:16;;;;;;;16.10;9.83;;;12.40;99.90;;;;;;5040119;28;20171;-88
2022/10/15 03:59:42;;;;;;;14.40;8.50;;;12.30;99.90;;;;;;5038575;28;20357;-94
2022/10/15 04:02:08;;;;;;;14.00;9.33;;;12.20;99.90;;;;;;5036164;28;20677;-94
2022/10/15 04:04:33;;;;;;;13.40;8.00;;;12.00;99.90;;;;;;5035596;28;20206;-93
2022/10/15 04:06:58;;;;;;;14.30;9.60;;;12.00;99.90;;;;;;5035645;28;20175;-94
2022/10/15 04:09:24;;;;;;;17.70;8.20;;;11.90;99.90;;;;;;5035097;28;20626;-92
2022/10/15 04:11:50;;;;;;;15.60;9.67;;;11.80;99.90;;;;;;5035397;28;20178;-93
2022/10/15 04:14:15;;;;;;;18.43;9.70;;;11.80;99.90;;;;;;5035465;28;20164;-93
2022/10/15 04:16:41;;;;;;;15.90;9.07;;;11.90;99.90;;;;;;5035006;28;20202;-94
2022/10/15 04:19:06;;;;;;;17.90;8.97;;;11.90;99.90;;;;;;5034410;28;20199;-90
2022/10/15 04:21:32;;;;;;;15.40;9.20;;;12.00;99.90;;;;;;5034558;28;20184;-93
2022/10/15 04:23:57;;;;;;;13.53;8.70;;;12.00;99.90;;;;;;5034991;28;20658;-92
2022/10/15 04:26:23;;;;;;;15.93;9.60;;;12.00;99.90;;;;;;5035037;28;20215;-91
2022/10/15 04:28:49;;;;;;;15.03;8.60;;;12.10;99.90;;;;;;5035472;28;20677;-93
2022/10/15 04:31:15;;;;;;;15.43;9.63;;;12.10;99.90;;;;;;5043352;28;20194;-92
2022/10/15 04:33:42;;;;;;;14.00;9.20;;;12.20;99.90;;;;;;5045924;28;20415;-92
2022/10/15 04:36:12;;;;;;;19.27;11.53;;;12.20;99.90;;;;;;5044479;28;20530;-89
2022/10/15 04:38:38;;;;;;;15.93;10.13;;;12.30;99.90;;;;;;5047098;28;20164;-89
2022/10/15 04:41:06;;;;;;;14.90;9.47;;;12.40;99.90;;;;;;5044853;28;20452;-91
2022/10/15 04:43:32;;;;;;;13.97;9.73;;;12.40;99.90;;;;;;5035016;28;20218;-86
2022/10/15 04:45:59;;;;;;;20.00;9.47;;;12.40;99.90;;;;;;5034631;28;20465;-94
2022/10/15 04:48:28;;;;;;;12.23;9.37;;;12.40;99.90;;;;;;5034965;28;20409;-91
2022/10/15 04:50:53;;;;;;;16.80;10.00;;;12.50;99.90;;;;;;5035092;28;20914;-94
2022/10/15 04:53:19;;;;;;;15.67;9.40;;;12.50;99.90;;;;;;5036307;28;20413;-92
2022/10/15 04:55:45;;;;;;;14.20;9.40;;;12.50;99.90;;;;;;5034572;28;20224;-94
2022/10/15 04:58:10;;;;;;;14.23;8.73;;;12.50;99.90;;;;;;5034069;28;20505;-93
2022/10/15 05:00:37;;;;;;;15.60;8.93;;;12.60;99.90;;;;;;5034305;28;20179;-91
2022/10/15 05:03:04;;;;;;;18.47;9.50;;;12.60;99.90;;;;;;5034001;28;20195;-85
2022/10/15 05:05:30;;;;;;;16.40;9.37;;;12.60;99.90;;;;;;5034373;28;20466;-93
2022/10/15 05:08:02;;;;;;;14.50;9.10;;;12.60;99.90;;;;;;5034803;28;20417;-93
2022/10/15 05:10:28;;;;;;;17.00;9.80;;;12.60;99.90;;;;;;5034606;28;20173;-92
2022/10/15 05:12:53;;;;;;;16.23;10.07;;;12.70;99.90;;;;;;5034366;28;20424;-92
2022/10/15 05:15:19;;;;;;;14.87;9.30;;;12.70;99.90;;;;;;5033157;28;20433;-94
2022/10/15 05:17:44;;;;;;;17.93;10.20;;;12.70;99.90;;;;;;5033392;28;20179;-92
2022/10/15 05:20:10;;;;;;;14.70;10.40;;;12.60;99.90;;;;;;5034521;28;20991;-92
2022/10/15 05:22:35;;;;;;;13.73;8.57;;;12.70;99.90;;;;;;5034440;28;20175;-93
2022/10/15 05:25:01;;;;;;;14.17;9.10;;;12.70;99.90;;;;;;5033479;28;20198;-93
2022/10/15 05:27:26;;;;;;;17.97;10.20;;;12.60;99.90;;;;;;5035732;28;20177;-95
2022/10/15 05:29:52;;;;;;;16.03;9.83;;;12.70;99.90;;;;;;5036176;28;20172;-93
2022/10/15 05:32:17;;;;;;;19.90;11.33;;;12.60;99.90;;;;;;5036133;28;20173;-92
2022/10/15 05:34:43;;;;;;;18.90;10.17;;;12.60;99.90;;;;;;5037942;28;20184;-91
2022/10/15 05:37:08;;;;;;;19.17;10.73;;;12.70;99.90;;;;;;5047641;28;20284;-91
2022/10/15 05:39:34;;;;;;;17.87;10.57;;;12.70;99.90;;;;;;5044382;28;20510;-84
2022/10/15 05:41:59;;;;;;;21.60;11.87;;;12.70;99.90;;;;;;5051851;28;20179;-93
2022/10/15 05:44:25;;;;;;;23.53;11.40;;;12.70;99.90;;;;;;5046717;28;20640;-92
2022/10/15 05:46:50;;;;;;;19.67;11.30;;;12.70;99.90;;;;;;5042265;28;20269;-86
2022/10/15 05:49:17;;;;;;;19.33;11.43;;;12.70;99.90;;;;;;5034123;28;20268;-88
2022/10/15 05:51:43;;;;;;;18.83;12.20;;;12.70;99.90;;;;;;5034490;28;20168;-91
2022/10/15 05:54:09;;;;;;;20.07;10.73;;;12.70;99.90;;;;;;5038451;28;20814;-93
2022/10/15 05:56:34;;;;;;;22.43;11.20;;;12.70;99.90;;;;;;5038690;28;20178;-89
2022/10/15 05:59:00;;;;;;;19.10;10.50;;;12.70;99.90;;;;;;5038115;28;20168;-94
2022/10/15 06:01:25;;;;;;;22.70;12.63;;;12.60;99.90;;;;;;5037930;28;20191;-90
2022/10/15 06:03:51;;;;;;;23.07;10.77;;;12.60;99.90;;;;;;5036951;28;20165;-92
2022/10/15 06:06:22;;;;;;;23.27;12.10;;;12.70;99.90;;;;;;5037859;28;20219;-92
2022/10/15 06:08:49;;;;;;;16.97;9.80;;;12.70;99.90;;;;;;5037844;28;20173;-93
2022/10/15 06:11:15;;;;;;;20.23;12.70;;;12.60;99.90;;;;;;5037190;28;20458;-89
2022/10/15 06:13:43;;;;;;;17.80;10.60;;;12.70;99.90;;;;;;5037676;28;20906;-93
2022/10/15 06:16:09;;;;;;;21.03;12.23;;;12.70;99.90;;;;;;5037994;28;20421;-92
2022/10/15 06:18:35;;;;;;;18.83;12.20;;;12.70;99.90;;;;;;5037593;28;20417;-91
2022/10/15 06:21:01;;;;;;;21.60;10.73;;;12.80;99.90;;;;;;5037893;28;20426;-89
2022/10/15 06:23:27;;;;;;;17.60;11.27;;;12.80;99.90;;;;;;5037847;28;20419;-85
2022/10/15 06:25:52;;;;;;;24.63;10.83;;;12.80;99.90;;;;;;5038573;28;20211;-94
2022/10/15 06:28:18;;;;;;;24.43;13.20;;;12.90;99.90;;;;;;5037518;28;20620;-93
2022/10/15 06:30:43;;;;;;;23.80;11.90;;;12.90;99.90;;;;;;5036893;28;20202;-92
2022/10/15 06:33:09;;;;;;;18.63;10.20;;;12.90;99.90;;;;;;5037634;28;20229;-85
2022/10/15 06:35:35;;;;;;;20.60;10.33;;;12.90;99.90;;;;;;5041705;28;20180;-92
2022/10/15 06:38:01;;;;;;;21.50;11.80;;;12.80;99.90;;;;;;5020967;28;20226;-88
2022/10/15 06:40:27;;;;;;;16.07;8.83;;;12.80;99.90;;;;;;5017270;28;20179;-87
2022/10/15 06:42:53;;;;;;;21.50;11.40;;;12.80;99.90;;;;;;5017588;28;20422;-92
2022/10/15 06:45:18;;;;;;;23.00;11.27;;;12.80;99.90;;;;;;5019916;28;20476;-89
2022/10/15 06:47:49;;;;;;;18.27;10.03;;;12.80;99.90;;;;;;5042442;28;20186;-91
2022/10/15 06:50:15;;;;;;;19.80;10.90;;;12.80;99.90;;;;;;5046400;28;20533;-94
2022/10/15 06:52:41;;;;;;;19.57;9.83;;;12.80;99.90;;;;;;5048241;28;20850;-93
2022/10/15 06:55:08;;;;;;;23.73;10.40;;;12.80;99.90;;;;;;5052196;28;20424;-87
2022/10/15 06:57:34;;;;;;;20.63;12.17;;;12.80;99.90;;;;;;5054711;28;20186;-86
2022/10/15 06:59:59;;;;;;;19.70;11.97;;;12.80;99.90;;;;;;5080423;23;20486;-94
2022/10/15 07:02:24;;;;;;;20.43;12.63;;;12.80;99.90;;;;;;5057730;28;20193;-88
2022/10/15 07:04:50;;;;;;;18.37;9.63;;;12.90;99.90;;;;;;5051464;28;20219;-90
2022/10/15 07:07:16;;;;;;;20.53;11.87;;;13.00;99.90;;;;;;5055962;28;20211;-84
2022/10/15 07:09:41;;;;;;;18.87;11.33;;;13.10;99.90;;;;;;5058106;28;20256;-84
2022/10/15 07:12:26;;;;;;;24.73;11.20;;;13.20;99.90;;;;;;5057063;28;20165;-84
2022/10/15 07:14:52;;;;;;;18.03;11.20;;;13.20;99.90;;;;;;5057038;28;20191;-83
2022/10/15 07:17:18;;;;;;;20.50;11.40;;;13.20;99.90;;;;;;5087479;22;20520;-92
2022/10/15 07:19:43;;;;;;;24.83;12.00;;;13.40;99.90;;;;;;5032464;28;20431;-94
2022/10/15 07:22:10;;;;;;;19.07;11.80;;;13.40;99.90;;;;;;5030511;28;20206;-92
2022/10/15 07:24:35;;;;;;;21.90;12.23;;;13.50;99.90;;;;;;5037586;28;20211;-91
2022/10/15 07:27:01;;;;;;;21.90;12.30;;;13.60;99.90;;;;;;5038833;28;20430;-92
2022/10/15 07:29:26;;;;;;;20.30;11.30;;;13.60;99.90;;;;;;5042722;28;20201;-94
2022/10/15 07:31:52;;;;;;;18.97;11.23;;;13.70;99.90;;;;;;5050183;28;20180;-93
2022/10/15 07:34:21;;;;;;;22.33;11.23;;;13.80;99.90;;;;;;5041990;28;20188;-96
2022/10/15 07:36:46;;;;;;;20.13;12.27;;;13.70;99.90;;;;;;5038189;28;20175;-94
2022/10/15 07:39:12;;;;;;;16.17;11.03;;;13.70;99.90;;;;;;5036068;28;20425;-94
2022/10/15 07:41:40;;;;;;;17.50;10.00;;;13.70;99.90;;;;;;5044434;28;20170;-85
2022/10/15 07:44:05;;;;;;;19.77;11.40;;;13.70;99.90;;;;;;5038240;28;20180;-85
2022/10/15 07:46:31;;;;;;;21.60;12.40;;;13.70;99.90;;;;;;5039201;28;21136;-90
2022/10/15 07:48:56;;;;;;;18.57;12.40;;;13.80;99.90;;;;;;5046190;28;20631;-94
2022/10/15 07:51:22;;;;;;;18.17;11.67;;;13.90;99.90;;;;;;5042842;28;20164;-88
2022/10/15 07:53:47;;;;;;;17.57;11.50;;;13.90;99.90;;;;;;5041009;28;20177;-91
2022/10/15 07:56:14;;;;;;;16.63;10.90;;;14.00;99.90;;;;;;5039972;28;20170;-93
2022/10/15 07:58:41;;;;;;;27.37;11.63;;;14.20;99.90;;;;;;5038439;28;20182;-91
2022/10/15 08:01:09;;;;;;;16.03;9.40;;;14.20;99.90;;;;;;5036369;28;20481;-90
2022/10/15 08:03:35;;;;;;;16.77;11.40;;;14.40;99.90;;;;;;5039047;28;20464;-89
2022/10/15 08:06:03;;;;;;;21.63;12.30;;;14.80;99.90;;;;;;5035843;28;20480;-83
2022/10/15 08:08:29;;;;;;;23.03;12.53;;;14.70;99.90;;;;;;5037581;28;20443;-86
2022/10/15 08:10:56;;;;;;;18.07;10.43;;;14.20;99.90;;;;;;5037948;28;20448;-86
2022/10/15 08:13:22;;;;;;;18.50;10.80;;;14.10;99.90;;;;;;5031798;28;20423;-89
2022/10/15 08:15:48;;;;;;;17.47;9.63;;;14.20;99.90;;;;;;5014627;28;20421;-88
2022/10/15 08:18:13;;;;;;;18.57;9.83;;;14.40;99.90;;;;;;5015092;28;20534;-91
2022/10/15 08:20:39;;;;;;;18.10;10.87;;;14.40;99.90;;;;;;5015074;28;20208;-91
2022/10/15 08:23:05;;;;;;;16.23;9.83;;;14.50;99.90;;;;;;5014724;28;20260;-85
2022/10/15 08:25:31;;;;;;;16.80;10.97;;;14.50;99.90;;;;;;5013914;28;20212;-84
2022/10/15 08:27:57;;;;;;;19.47;11.27;;;14.50;99.90;;;;;;5014227;28;20428;-87
2022/10/15 08:30:23;;;;;;;15.70;9.30;;;14.30;99.90;;;;;;5014048;28;20418;-86
2022/10/15 08:32:49;;;;;;;17.63;9.70;;;14.30;99.90;;;;;;5014548;28;20442;-88
2022/10/15 08:35:15;;;;;;;20.90;9.70;;;14.50;99.90;;;;;;5014640;28;20429;-91
2022/10/15 08:37:40;;;;;;;21.73;11.53;;;15.10;99.90;;;;;;5014809;28;20168;-94
2022/10/15 08:40:07;;;;;;;19.00;9.30;;;16.30;39.00;;;;;;5014820;28;20172;-88
2022/10/15 08:42:36;;;;;;;15.03;9.30;;;16.40;28.70;;;;;;5013661;28;20172;-88
2022/10/15 08:45:12;;;;;;;17.07;9.30;;;17.50;1.00;;;;;;5014541;28;20454;-90
2022/10/15 08:47:57;;;;;;;13.57;8.40;;;20.60;1.00;;;;;;5014804;28;20431;-90
2022/10/15 08:50:34;;;;;;;12.37;8.07;;;19.20;99.90;;;;;;5015373;28;20916;-93
2022/10/15 08:53:00;;;;;;;16.43;8.00;;;17.50;99.90;;;;;;5015444;28;20402;-90
2022/10/15 08:55:34;;;;;;;12.40;7.40;;;16.40;1.00;;;;;;5018955;28;20426;-84
2022/10/15 08:58:33;;;;;;;15.33;9.17;;;16.10;5.10;;;;;;5020779;28;20208;-85
2022/10/15 09:01:33;;;;;;;13.93;7.70;;;16.00;44.90;;;;;;5031311;28;20397;-84
2022/10/15 09:04:27;;;;;;;14.40;8.60;;;16.70;1.00;;;;;;5020510;28;20422;-84
2022/10/15 09:07:05;;;;;;;14.23;7.30;;;16.20;53.80;;;;;;5016330;28;20541;-85
2022/10/15 09:09:37;;;;;;;15.90;9.83;;;15.80;99.90;;;;;;5020480;28;20413;-91
2022/10/15 09:12:41;;;;;;;15.50;8.47;;;16.50;30.60;;;;;;5033131;28;20461;-94
2022/10/15 09:15:14;;;;;;;14.70;8.60;;;16.60;1.00;;;;;;5033971;28;20409;-85
2022/10/15 09:17:42;;;;;;;14.30;7.93;;;17.10;1.00;;;;;;5024957;28;20464;-88
2022/10/15 09:20:16;;;;;;;13.47;8.50;;;17.60;1.00;;;;;;5030179;28;20865;-86
2022/10/15 09:22:41;;;;;;;13.10;7.13;;;17.90;1.00;;;;;;5014218;28;20448;-88
2022/10/15 09:25:15;;;;;;;12.70;6.20;;;17.90;99.90;;;;;;5032683;28;20494;-90
2022/10/15 09:27:41;;;;;;;10.47;7.73;;;19.20;99.90;;;;;;5032665;28;20172;-87
2022/10/15 09:30:33;;;;;;;10.23;6.97;;;18.90;1.00;;;;;;5033463;28;20416;-90
2022/10/15 09:33:07;;;;;;;10.83;7.23;;;20.30;1.00;;;;;;5025347;28;20430;-86
2022/10/15 09:35:40;;;;;;;10.17;6.53;;;21.40;99.90;;;;;;5024851;28;20508;-89
2022/10/15 09:38:15;;;;;;;12.93;7.40;;;22.10;99.90;;;;;;5025853;28;20756;-89
2022/10/15 09:41:16;;;;;;;11.23;6.87;;;22.60;99.90;;;;;;5036550;28;20408;-90
2022/10/15 09:43:48;;;;;;;10.87;7.67;;;22.90;99.90;;;;;;5029920;28;20859;-91
2022/10/15 09:46:14;;;;;;;11.43;7.57;;;22.60;99.90;;;;;;5026367;28;20473;-92
2022/10/15 09:49:04;;;;;;;11.20;8.00;;;23.30;99.90;;;;;;5027739;28;20961;-90
2022/10/15 09:51:52;;;;;;;12.87;7.73;;;23.30;99.90;;;;;;5030042;28;20171;-91
2022/10/15 09:54:18;;;;;;;9.10;6.93;;;24.20;99.90;;;;;;5034900;28;20512;-92
2022/10/15 09:56:52;;;;;;;9.63;7.73;;;24.30;99.90;;;;;;5026677;28;21073;-88
2022/10/15 09:59:20;;;;;;;10.83;8.03;;;22.10;99.90;;;;;;5025565;28;20173;-91
2022/10/15 10:02:17;;;;;;;8.97;6.83;;;22.10;99.90;;;;;;5027567;28;20409;-87
2022/10/15 10:04:43;;;;;;;11.50;6.90;;;21.50;99.90;;;;;;5025008;28;20461;-91
2022/10/15 10:07:37;;;;;;;9.10;6.37;;;22.40;99.90;;;;;;5029887;28;20834;-91
2022/10/15 10:10:25;;;;;;;8.17;6.00;;;23.70;99.90;;;;;;5031414;28;20311;-86
2022/10/15 10:12:53;;;;;;;7.07;5.90;;;24.90;99.90;;;;;;5029789;28;20848;-90
2022/10/15 10:15:38;;;;;;;9.73;6.93;;;25.20;99.90;;;;;;5021887;28;20907;-90
2022/10/15 10:18:06;;;;;;;7.33;6.00;;;24.50;99.90;;;;;;5024667;28;20985;-93
2022/10/15 10:20:33;;;;;;;7.77;6.33;;;24.70;99.90;;;;;;5017830;28;20414;-91
2022/10/15 10:23:01;;;;;;;9.00;6.07;;;24.00;99.90;;;;;;5017540;28;20410;-89
2022/10/15 10:25:43;;;;;;;8.13;5.80;;;23.00;99.90;;;;;;5020193;28;20920;-87
2022/10/15 10:28:10;;;;;;;7.17;5.73;;;21.60;99.90;;;;;;5017427;28;20757;-87
2022/10/15 10:30:41;;;;;;;6.83;4.97;;;20.70;99.90;;;;;;5017298;28;20816;-91
2022/10/15 10:33:11;;;;;;;9.10;6.20;;;20.90;1.00;;;;;;5017437;28;20751;-89
2022/10/15 10:35:46;;;;;;;8.70;5.70;;;20.70;99.90;;;;;;5021415;28;20429;-87
2022/10/15 10:38:23;;;;;;;10.13;5.80;;;21.10;99.90;;;;;;5016674;28;20500;-92
2022/10/15 10:40:54;;;;;;;6.17;4.07;;;20.30;1.00;;;;;;5020194;28;21004;-88
2022/10/15 10:43:25;;;;;;;7.37;5.30;;;20.30;1.00;;;;;;5017220;28;20476;-87
2022/10/15 10:45:52;;;;;;;6.30;3.97;;;20.30;33.10;;;;;;5016469;28;20560;-90
2022/10/15 10:48:21;;;;;;;7.53;4.60;;;19.80;14.00;;;;;;5017618;28;20520;-91
2022/10/15 10:50:47;;;;;;;6.80;4.10;;;19.50;99.90;;;;;;5017586;28;20410;-89
2022/10/15 10:53:21;;;;;;;7.73;3.50;;;19.30;99.90;;;;;;5016511;28;20424;-89
2022/10/15 10:55:48;;;;;;;4.00;2.60;;;19.20;1.00;;;;;;5018169;28;20170;-89
2022/10/15 10:58:19;;;;;;;4.10;2.00;;;19.00;99.90;;;;;;5017191;28;20423;-89
2022/10/15 11:00:48;;;;;;;7.07;3.10;;;19.30;1.00;;;;;;5016369;28;20408;-89
2022/10/15 11:03:28;;;;;;;6.13;3.00;;;19.20;1.00;;;;;;5017325;28;20490;-93
2022/10/15 11:06:21;;;;;;;3.93;3.00;;;19.40;94.10;;;;;;5016898;28;20469;-89
2022/10/15 11:09:09;;;;;;;5.33;2.07;;;19.60;99.90;;;;;;5016826;28;20818;-91
2022/10/15 11:12:06;;;;;;;4.47;1.87;;;19.20;1.00;;;;;;5018095;28;20424;-92
2022/10/15 11:14:56;;;;;;;4.07;1.73;;;19.90;1.00;;;;;;5018056;28;20414;-90
2022/10/15 11:17:40;;;;;;;4.10;1.67;;;21.50;1.00;;;;;;5018610;28;20536;-92
2022/10/15 11:20:21;;;;;;;5.10;2.47;;;23.70;99.90;;;;;;5019229;28;20414;-90
2022/10/15 11:23:03;;;;;;;4.93;1.83;;;22.70;99.90;;;;;;5034114;28;20424;-92
2022/10/15 11:26:17;;;;;;;5.77;3.03;;;22.00;99.90;;;;;;5028867;28;20821;-94
2022/10/15 11:29:18;;;;;;;2.70;1.87;;;22.10;99.90;;;;;;5036193;28;20413;-91
2022/10/15 11:32:04;;;;;;;3.40;2.50;;;21.10;99.90;;;;;;5029349;28;20414;-92
2022/10/15 11:34:56;;;;;;;6.30;2.10;;;20.20;1.00;;;;;;5031088;28;20418;-91
2022/10/15 11:37:37;;;;;;;3.57;1.60;;;20.40;1.00;;;;;;5027047;28;20431;-89
2022/10/15 11:40:35;;;;;;;3.03;2.13;;;21.30;99.90;;;;;;5037885;28;20839;-92
2022/10/15 11:43:13;;;;;;;2.87;1.17;;;23.60;99.90;;;;;;5028830;28;20512;-93
2022/10/15 11:45:56;;;;;;;3.83;1.50;;;24.00;99.90;;;;;;5041358;28;20495;-91
2022/10/15 11:48:56;;;;;;;3.20;1.40;;;24.40;99.90;;;;;;5038419;28;20405;-90
2022/10/15 11:51:33;;;;;;;3.93;1.13;;;24.50;99.90;;;;;;5038168;28;20421;-87
2022/10/15 11:54:15;;;;;;;2.43;1.07;;;24.00;99.90;;;;;;5027939;28;20437;-87
2022/10/15 11:56:50;;;;;;;4.30;1.70;;;23.00;99.90;;;;;;5035353;28;20441;-87
2022/10/15 11:59:31;;;;;;;5.23;1.30;;;21.30;99.90;;;;;;5025910;28;20429;-89
2022/10/15 12:02:00;;;;;;;3.03;1.37;;;;;;;;;;5027801;28;20417;-86
2022/10/15 12:04:41;;;;;;;1.80;1.23;;;20.80;99.90;;;;;;5027115;28;20936;-89
2022/10/15 12:07:15;;;;;;;2.90;0.97;;;21.50;99.90;;;;;;5028566;28;20479;-86
2022/10/15 12:09:45;;;;;;;3.73;1.10;;;22.50;99.90;;;;;;5020387;28;20425;-88
2022/10/15 12:12:27;;;;;;;2.40;1.13;;;21.60;99.90;;;;;;5015471;28;20410;-91
2022/10/15 12:15:11;;;;;;;2.10;1.00;;;20.90;99.90;;;;;;5024603;28;20425;-89
2022/10/15 12:18:10;;;;;;;2.47;1.03;;;20.40;99.90;;;;;;5013934;28;20965;-90
2022/10/15 12:20:36;;;;;;;3.97;1.27;;;20.20;99.90;;;;;;5016651;28;20527;-87
2022/10/15 12:23:02;;;;;;;2.00;0.90;;;20.40;99.90;;;;;;5021201;28;20580;-89
2022/10/15 12:25:34;;;;;;;2.80;1.10;;;20.50;99.90;;;;;;5024225;28;20213;-90
2022/10/15 12:28:04;;;;;;;2.87;1.33;;;20.40;99.90;;;;;;5025342;28;20496;-93
2022/10/15 12:30:36;;;;;;;1.37;0.60;;;20.30;99.90;;;;;;5026619;28;20417;-90
2022/10/15 12:33:19;;;;;;;1.93;0.87;;;20.70;99.90;;;;;;5024213;28;20401;-90
2022/10/15 12:35:53;;;;;;;1.60;1.07;;;20.60;99.90;;;;;;5023504;28;20957;-89
2022/10/15 12:38:25;;;;;;;3.07;0.80;;;20.40;99.90;;;;;;5022955;28;20414;-91
2022/10/15 12:40:57;;;;;;;2.10;0.83;;;20.10;99.90;;;;;;5027757;28;20839;-90
2022/10/15 12:43:24;;;;;;;3.37;1.10;;;19.90;99.90;;;;;;5024934;28;21169;-89
2022/10/15 12:45:53;;;;;;;1.77;0.53;;;20.00;99.90;;;;;;5027135;28;20555;-92
2022/10/15 12:48:52;;;;;;;1.53;0.63;;;19.80;99.90;;;;;;5021412;28;20779;-88
2022/10/15 12:51:21;;;;;;;1.20;0.60;;;19.80;99.90;;;;;;5011768;28;20519;-88
2022/10/15 12:53:51;;;;;;;1.77;0.67;;;19.80;99.90;;;;;;5015132;28;20467;-90
2022/10/15 12:56:16;;;;;;;5.97;1.20;;;19.80;99.90;;;;;;5014605;28;20470;-87
2022/10/15 12:58:45;;;;;;;2.50;0.90;;;19.70;99.90;;;;;;5015598;28;20419;-88
2022/10/15 13:01:13;;;;;;;2.23;0.70;;;19.70;99.90;;;;;;5031595;28;20164;-89